createdAt,value
2022-10-25T00:00:43.634Z,80.60
2022-10-25T00:04:07.168Z,81.00
2022-10-25T00:07:30.734Z,81.00
2022-10-25T00:10:54.320Z,81.10
2022-10-25T00:14:19.609Z,81.30
2022-10-25T00:17:45.456Z,81.40
2022-10-25T00:21:09.293Z,81.20
2022-10-25T00:24:32.818Z,81.10
2022-10-25T00:27:56.422Z,81.40
2022-10-25T00:31:19.976Z,81.70
2022-10-25T00:34:44.855Z,81.90
2022-10-25T00:38:08.456Z,82.30
2022-10-25T00:41:35.216Z,82.50
2022-10-25T00:45:01.722Z,82.60
2022-10-25T00:48:25.466Z,82.70
2022-10-25T00:51:53.637Z,82.90
2022-10-25T00:55:20.009Z,82.90
2022-10-25T00:58:47.399Z,82.80
2022-10-25T01:02:11.269Z,82.80
2022-10-25T01:05:35.531Z,82.60
2022-10-25T01:09:01.906Z,82.60
2022-10-25T01:12:25.567Z,82.50
2022-10-25T01:15:59.620Z,82.30
2022-10-25T01:19:37.954Z,82.30
2022-10-25T01:23:13.540Z,82.20
2022-10-25T01:27:16.592Z,82.20
2022-10-25T01:31:20.978Z,82.30
2022-10-25T01:34:50.372Z,82.00
2022-10-25T01:38:28.865Z,82.30
2022-10-25T01:42:01.689Z,82.30
2022-10-25T01:45:30.592Z,82.10
2022-10-25T01:48:59.973Z,82.10
2022-10-25T01:52:24.611Z,82.00
2022-10-25T01:55:55.748Z,81.70
2022-10-25T01:59:38.740Z,81.80
2022-10-25T02:03:12.239Z,81.60
2022-10-25T02:06:46.065Z,81.50
2022-10-25T02:10:13.292Z,81.70
2022-10-25T02:13:48.749Z,81.70
2022-10-25T02:17:16.206Z,81.90
2022-10-25T02:20:45.859Z,81.80
2022-10-25T02:24:16.393Z,81.80
2022-10-25T02:27:40.854Z,82.00
2022-10-25T02:31:05.026Z,81.50
2022-10-25T02:34:28.696Z,81.80
2022-10-25T02:37:52.278Z,81.60
2022-10-25T02:41:19.374Z,81.50
2022-10-25T02:44:42.988Z,81.60
2022-10-25T02:48:06.988Z,82.10
2022-10-25T02:51:30.629Z,81.50
2022-10-25T02:54:54.244Z,81.40
2022-10-25T02:58:19.157Z,81.30
2022-10-25T03:01:42.894Z,81.20
2022-10-25T03:05:07.046Z,81.30
2022-10-25T03:08:30.639Z,81.30
2022-10-25T03:11:54.211Z,81.00
2022-10-25T03:15:19.102Z,81.40
2022-10-25T03:18:42.665Z,81.20
2022-10-25T03:22:06.180Z,81.20
2022-10-25T03:25:29.960Z,81.30
2022-10-25T03:28:53.500Z,81.20
2022-10-25T03:32:18.570Z,81.00
2022-10-25T03:35:42.159Z,81.00
2022-10-25T03:39:05.844Z,81.10
2022-10-25T03:42:29.391Z,80.70
2022-10-25T03:45:53.074Z,80.70
2022-10-25T03:49:17.987Z,80.50
2022-10-25T03:52:42.001Z,80.40
2022-10-25T03:56:06.518Z,80.40
2022-10-25T03:59:30.370Z,80.50
2022-10-25T04:02:59.442Z,80.40
2022-10-25T04:06:26.947Z,80.30
2022-10-25T04:09:50.532Z,80.20
2022-10-25T04:13:14.096Z,80.00
2022-10-25T04:16:37.763Z,79.90
2022-10-25T04:20:01.440Z,79.80
2022-10-25T04:23:26.615Z,79.80
2022-10-25T04:26:50.417Z,79.80
2022-10-25T04:30:14.126Z,79.60
2022-10-25T04:33:37.656Z,79.60
2022-10-25T04:37:01.218Z,79.10
2022-10-25T04:40:26.766Z,79.20
2022-10-25T04:43:52.953Z,78.60
2022-10-25T04:47:16.725Z,79.00
2022-10-25T04:50:40.412Z,79.00
2022-10-25T04:54:05.238Z,78.60
2022-10-25T04:57:30.236Z,78.70
2022-10-25T05:00:54.623Z,78.70
2022-10-25T05:04:18.193Z,78.90
2022-10-25T05:07:41.904Z,79.00
2022-10-25T05:11:05.916Z,79.30
2022-10-25T05:14:31.342Z,79.20
2022-10-25T05:17:58.407Z,79.10
2022-10-25T05:21:23.234Z,79.00
2022-10-25T05:24:46.831Z,79.00
2022-10-25T05:28:10.485Z,79.10
2022-10-25T05:31:35.394Z,78.90
2022-10-25T05:34:59.050Z,78.70
2022-10-25T05:38:22.822Z,78.90
2022-10-25T05:41:46.555Z,79.00
2022-10-25T05:45:10.918Z,78.50
2022-10-25T05:48:37.440Z,79.00
2022-10-25T05:52:00.953Z,78.90
2022-10-25T05:55:24.608Z,79.10
2022-10-25T05:58:48.635Z,79.10
2022-10-25T06:02:12.501Z,78.90
2022-10-25T06:05:38.366Z,78.70
2022-10-25T06:09:03.316Z,79.00
2022-10-25T06:12:27.003Z,78.90
2022-10-25T06:15:51.750Z,79.10
2022-10-25T06:19:15.982Z,79.20
2022-10-25T06:22:41.010Z,79.00
2022-10-25T06:26:09.477Z,79.40
2022-10-25T06:29:33.643Z,79.70
2022-10-25T06:32:58.969Z,79.60
2022-10-25T06:36:26.904Z,79.70
2022-10-25T06:39:51.767Z,79.70
2022-10-25T06:43:15.516Z,79.80
2022-10-25T06:47:15.367Z,79.60
2022-10-25T06:50:26.100Z,79.60
2022-10-25T06:53:55.089Z,79.70
2022-10-25T06:57:20.027Z,79.50
2022-10-25T07:00:45.989Z,79.50
2022-10-25T07:04:11.281Z,79.60
2022-10-25T07:07:34.867Z,79.60
2022-10-25T07:10:58.609Z,79.90
2022-10-25T07:14:24.175Z,79.20
2022-10-25T07:17:48.120Z,78.40
2022-10-25T07:21:14.123Z,77.40
2022-10-25T07:24:37.777Z,77.30
2022-10-25T07:28:01.331Z,78.00
2022-10-25T07:31:28.673Z,73.40
2022-10-25T07:34:52.349Z,63.20
2022-10-25T07:38:16.626Z,61.50
2022-10-25T07:41:41.090Z,61.80
2022-10-25T07:45:05.910Z,63.70
2022-10-25T07:48:31.537Z,64.20
2022-10-25T07:51:55.885Z,61.60
2022-10-25T07:55:19.554Z,60.90
2022-10-25T07:58:44.159Z,58.90
2022-10-25T08:02:09.626Z,58.20
2022-10-25T08:05:36.340Z,58.90
2022-10-25T08:09:09.693Z,59.60
2022-10-25T08:12:39.532Z,62.20
2022-10-25T08:16:03.952Z,65.20
2022-10-25T08:19:27.742Z,67.00
2022-10-25T08:22:54.026Z,68.80
2022-10-25T08:26:18.117Z,69.90
2022-10-25T08:29:43.010Z,71.10
2022-10-25T08:33:11.206Z,71.70
2022-10-25T08:36:35.375Z,71.30
2022-10-25T08:40:00.300Z,71.80
2022-10-25T08:43:34.205Z,71.40
2022-10-25T08:47:02.918Z,71.30
2022-10-25T08:50:39.102Z,71.40
2022-10-25T08:54:06.310Z,71.90
2022-10-25T08:57:34.412Z,72.10
2022-10-25T09:01:02.203Z,71.60
2022-10-25T09:04:26.015Z,71.20
2022-10-25T09:08:09.801Z,71.10
2022-10-25T09:11:47.985Z,71.60
2022-10-25T09:15:17.826Z,70.80
2022-10-25T09:18:49.601Z,70.00
2022-10-25T09:22:21.215Z,69.70
2022-10-25T09:25:53.535Z,69.90
2022-10-25T09:29:25.133Z,69.60
2022-10-25T09:32:53.386Z,69.60
2022-10-25T09:36:16.967Z,69.20
2022-10-25T09:39:43.648Z,68.60
2022-10-25T09:43:14.581Z,65.70
2022-10-25T09:46:43.290Z,63.60
2022-10-25T09:50:16.914Z,62.30
2022-10-25T09:53:42.928Z,62.90
2022-10-25T09:57:06.814Z,65.00
2022-10-25T10:00:31.068Z,66.80
2022-10-25T10:03:58.128Z,67.50
2022-10-25T10:07:30.162Z,68.50
2022-10-25T10:10:55.307Z,69.90
2022-10-25T10:14:27.323Z,69.90
2022-10-25T10:18:21.061Z,70.40
2022-10-25T10:21:45.961Z,70.70
2022-10-25T10:25:18.687Z,70.60
2022-10-25T10:28:46.844Z,70.50
2022-10-25T10:32:29.148Z,70.90
2022-10-25T10:35:55.932Z,70.10
2022-10-25T10:39:24.423Z,68.20
2022-10-25T10:42:49.868Z,67.00
2022-10-25T10:46:17.286Z,66.30
2022-10-25T10:49:43.487Z,66.20
2022-10-25T10:53:20.915Z,66.40
2022-10-25T10:56:44.545Z,65.90
2022-10-25T11:00:22.619Z,65.50
2022-10-25T11:03:59.428Z,64.40
2022-10-25T11:07:30.503Z,63.90
2022-10-25T11:11:12.692Z,63.20
2022-10-25T11:14:36.309Z,63.80
2022-10-25T11:18:06.128Z,63.90
2022-10-25T11:21:54.893Z,63.90
2022-10-25T11:25:28.339Z,62.20
2022-10-25T11:29:00.650Z,62.70
2022-10-25T11:33:02.924Z,63.10
2022-10-25T11:36:46.639Z,62.70
2022-10-25T11:40:17.138Z,62.10
2022-10-25T11:43:54.091Z,62.50
2022-10-25T11:47:29.464Z,62.70
2022-10-25T11:51:04.404Z,63.10
2022-10-25T11:54:37.482Z,62.10
2022-10-25T11:58:09.993Z,61.50
2022-10-25T12:01:46.450Z,61.80
2022-10-25T12:05:23.650Z,61.40
2022-10-25T12:09:00.479Z,61.50
2022-10-25T12:12:31.381Z,61.50
2022-10-25T12:15:57.614Z,61.00
2022-10-25T12:19:26.836Z,60.50
2022-10-25T12:22:53.253Z,60.20
2022-10-25T12:26:25.544Z,60.40
2022-10-25T12:29:55.115Z,61.00
2022-10-25T12:33:30.419Z,61.20
2022-10-25T12:37:01.454Z,61.70
2022-10-25T12:40:26.406Z,61.90
2022-10-25T12:44:04.384Z,61.70
2022-10-25T12:47:42.944Z,62.20
2022-10-25T12:51:22.082Z,62.50
2022-10-25T12:55:23.562Z,62.10
2022-10-25T12:58:58.369Z,62.20
2022-10-25T13:02:56.492Z,62.30
2022-10-25T13:06:33.720Z,62.00
2022-10-25T13:10:05.369Z,62.10
2022-10-25T13:13:33.800Z,62.50
2022-10-25T13:17:40.808Z,62.80
2022-10-25T13:21:07.768Z,62.80
2022-10-25T13:24:39.926Z,63.10
2022-10-25T13:28:21.469Z,62.80
2022-10-25T13:31:58.117Z,62.90
2022-10-25T13:36:00.879Z,62.40
2022-10-25T13:39:30.992Z,62.60
2022-10-25T13:43:03.802Z,62.60
2022-10-25T13:46:32.601Z,62.00
2022-10-25T13:49:56.441Z,62.00
2022-10-25T13:53:24.213Z,62.70
2022-10-25T13:56:54.482Z,62.40
2022-10-25T14:00:39.952Z,61.70
2022-10-25T14:04:08.300Z,61.70
2022-10-25T14:07:47.488Z,61.80
2022-10-25T14:11:14.511Z,61.70
2022-10-25T14:14:51.539Z,61.30
2022-10-25T14:18:20.237Z,61.20
2022-10-25T14:21:48.223Z,61.30
2022-10-25T14:25:22.121Z,61.60
2022-10-25T14:28:45.911Z,61.90
2022-10-25T14:32:31.291Z,62.10
2022-10-25T14:36:28.639Z,62.40
2022-10-25T14:39:53.814Z,62.50
2022-10-25T14:43:24.347Z,62.30
2022-10-25T14:46:47.922Z,62.50
2022-10-25T14:50:15.427Z,62.20
2022-10-25T14:53:48.986Z,62.30
2022-10-25T14:57:12.863Z,62.50
2022-10-25T15:00:36.585Z,62.60
2022-10-25T15:04:01.917Z,63.20
2022-10-25T15:07:30.723Z,63.70
2022-10-25T15:10:58.596Z,64.50
2022-10-25T15:14:22.715Z,64.80
2022-10-25T15:17:52.522Z,65.10
2022-10-25T15:21:17.539Z,65.60
2022-10-25T15:24:48.696Z,65.70
2022-10-25T15:28:14.411Z,65.90
2022-10-25T15:31:38.094Z,65.60
2022-10-25T15:35:03.353Z,65.40
2022-10-25T15:38:41.935Z,65.50
2022-10-25T15:42:15.296Z,65.50
2022-10-25T15:45:39.750Z,65.80
2022-10-25T15:49:06.586Z,65.90
2022-10-25T15:52:30.217Z,66.10
2022-10-25T15:55:53.775Z,66.00
2022-10-25T15:59:18.837Z,66.20
2022-10-25T16:02:42.470Z,65.90
2022-10-25T16:06:06.411Z,66.00
2022-10-25T16:09:29.957Z,66.20
2022-10-25T16:12:59.362Z,66.20
2022-10-25T16:16:43.312Z,66.40
2022-10-25T16:20:13.638Z,66.10
2022-10-25T16:23:37.222Z,66.30
2022-10-25T16:27:01.222Z,66.60
2022-10-25T16:30:27.010Z,66.70
2022-10-25T16:33:51.921Z,66.70
2022-10-25T16:37:15.490Z,66.60
2022-10-25T16:40:39.226Z,67.00
2022-10-25T16:44:22.602Z,67.00
2022-10-25T16:47:46.261Z,67.30
2022-10-25T16:51:14.424Z,67.40
2022-10-25T16:54:37.962Z,67.50
2022-10-25T16:58:02.553Z,67.60
2022-10-25T17:01:29.308Z,67.70
2022-10-25T17:04:53.506Z,67.90
2022-10-25T17:08:18.450Z,68.30
2022-10-25T17:11:42.159Z,68.70
2022-10-25T17:15:06.698Z,69.50
2022-10-25T17:18:30.310Z,69.90
2022-10-25T17:21:54.253Z,70.30
2022-10-25T17:25:19.407Z,70.50
2022-10-25T17:28:44.372Z,70.60
2022-10-25T17:32:08.281Z,70.80
2022-10-25T17:35:31.982Z,71.20
2022-10-25T17:38:55.746Z,71.50
2022-10-25T17:42:20.683Z,71.70
2022-10-25T17:45:45.308Z,71.50
2022-10-25T17:49:08.915Z,71.70
2022-10-25T17:52:32.537Z,71.90
2022-10-25T17:55:56.099Z,72.30
2022-10-25T17:59:21.022Z,72.40
2022-10-25T18:02:50.375Z,72.70
2022-10-25T18:06:15.732Z,72.50
2022-10-25T18:09:39.956Z,73.00
2022-10-25T18:13:03.586Z,73.40
2022-10-25T18:16:30.930Z,73.40
2022-10-25T18:19:55.055Z,73.80
2022-10-25T18:23:18.993Z,74.00
2022-10-25T18:26:42.650Z,74.00
2022-10-25T18:30:07.267Z,74.30
2022-10-25T18:33:32.774Z,74.30
2022-10-25T18:36:56.559Z,74.60
2022-10-25T18:40:20.202Z,75.00
2022-10-25T18:43:44.102Z,75.20
2022-10-25T18:47:08.051Z,75.40
2022-10-25T18:50:39.181Z,75.30
2022-10-25T18:54:05.434Z,75.40
2022-10-25T18:57:30.600Z,75.40
2022-10-25T19:00:54.353Z,75.60
2022-10-25T19:04:17.994Z,75.70
2022-10-25T19:07:43.084Z,76.00
2022-10-25T19:11:08.301Z,76.00
2022-10-25T19:14:31.905Z,76.20
2022-10-25T19:17:55.523Z,76.10
2022-10-25T19:21:19.766Z,76.30
2022-10-25T19:24:44.859Z,76.50
2022-10-25T19:28:08.810Z,76.80
2022-10-25T19:31:32.472Z,76.70
2022-10-25T19:34:56.014Z,76.40
2022-10-25T19:38:19.516Z,76.50
2022-10-25T19:41:44.562Z,76.70
2022-10-25T19:45:08.742Z,77.00
2022-10-25T19:48:32.951Z,77.10
2022-10-25T19:51:56.591Z,77.80
2022-10-25T19:55:20.223Z,76.80
2022-10-25T19:58:45.901Z,76.80
2022-10-25T20:02:09.995Z,77.00
2022-10-25T20:05:33.951Z,77.30
2022-10-25T20:08:59.487Z,77.50
2022-10-25T20:12:23.039Z,77.50
2022-10-25T20:15:51.462Z,77.50
2022-10-25T20:19:15.311Z,77.60
2022-10-25T20:22:39.140Z,77.70
2022-10-25T20:26:11.957Z,77.70
2022-10-25T20:29:35.509Z,77.50
2022-10-25T20:33:00.416Z,77.70
2022-10-25T20:36:24.583Z,77.60
2022-10-25T20:39:48.234Z,77.60
2022-10-25T20:43:11.771Z,77.50
2022-10-25T20:46:36.071Z,77.50
2022-10-25T20:50:01.000Z,77.40
2022-10-25T20:53:24.622Z,77.30
2022-10-25T20:56:48.280Z,76.90
2022-10-25T21:00:15.912Z,77.10
2022-10-25T21:03:41.759Z,77.30
2022-10-25T21:07:06.704Z,77.20
2022-10-25T21:10:30.350Z,76.90
2022-10-25T21:13:54.064Z,77.00
2022-10-25T21:17:17.655Z,77.30
2022-10-25T21:20:41.291Z,77.70
2022-10-25T21:24:06.705Z,77.90
2022-10-25T21:27:30.233Z,77.90
2022-10-25T21:30:54.068Z,77.90
2022-10-25T21:37:49.060Z,77.80
2022-10-25T21:41:16.726Z,77.60
2022-10-25T21:44:40.371Z,77.60
2022-10-25T21:48:04.155Z,77.70
2022-10-25T21:51:27.755Z,77.80
2022-10-25T21:54:51.388Z,77.70
2022-10-25T21:58:16.362Z,77.80
2022-10-25T22:01:40.189Z,77.80
2022-10-25T22:05:03.966Z,77.50
2022-10-25T22:08:27.501Z,77.80
2022-10-25T22:11:52.490Z,77.50
2022-10-25T22:15:17.768Z,77.70
2022-10-25T22:18:41.710Z,77.80
2022-10-25T22:22:05.581Z,77.80
2022-10-25T22:25:29.249Z,78.10
2022-10-25T22:28:53.801Z,78.00
2022-10-25T22:32:19.014Z,77.80
2022-10-25T22:35:42.649Z,77.90
2022-10-25T22:39:06.506Z,78.10
2022-10-25T22:42:30.154Z,78.00
2022-10-25T22:45:54.128Z,78.20
2022-10-25T22:49:19.603Z,78.40
2022-10-25T22:56:13.544Z,78.20
2022-10-25T22:59:37.202Z,78.30
2022-10-25T23:03:00.880Z,78.40
2022-10-25T23:06:27.924Z,78.50
2022-10-25T23:09:51.425Z,78.30
2022-10-25T23:13:15.104Z,78.30
2022-10-25T23:16:38.754Z,78.30
2022-10-25T23:20:02.286Z,78.20
2022-10-25T23:23:28.875Z,78.10
2022-10-25T23:26:52.469Z,78.30
2022-10-25T23:30:16.196Z,78.30
2022-10-25T23:33:41.576Z,78.00
2022-10-25T23:37:05.228Z,78.10
2022-10-25T23:40:31.478Z,78.40
2022-10-25T23:43:55.036Z,78.20
2022-10-25T23:47:18.602Z,78.20
2022-10-25T23:50:42.279Z,78.40
2022-10-25T23:54:09.373Z,78.10
2022-10-25T23:57:34.340Z,77.80
